Time;durP1;ratioP1;P1;durP2;ratioP2;P2;SDS_P1;SDS_P2;PMS_P1;PMS_P2;Temp;Humidity;BMP_temperature;BMP_pressure;BME280_temperature;BME280_humidity;BME280_pressure;Samples;Min_cycle;Max_cycle;Signal;HPM_P1;HPM_P2
2022/07/10 00:00:26;;;;;;;3.40;3.08;;;17.20;99.90;;;;;;4970956;28;20035;-32
2022/07/10 00:02:52;;;;;;;3.75;2.72;;;17.10;99.90;;;;;;4968952;28;20122;-33
2022/07/10 00:05:18;;;;;;;3.58;2.88;;;17.00;99.90;;;;;;4971026;28;20089;-32
2022/07/10 00:07:44;;;;;;;4.05;3.03;;;17.00;99.90;;;;;;4970611;28;20381;-32
2022/07/10 00:10:10;;;;;;;3.20;3.00;;;17.00;99.90;;;;;;4970752;28;20034;-32
2022/07/10 00:12:37;;;;;;;4.20;2.58;;;16.90;99.90;;;;;;4970088;28;20039;-32
2022/07/10 00:15:06;;;;;;;3.13;2.83;;;16.90;99.90;;;;;;4975690;28;20492;-32
2022/07/10 00:17:32;;;;;;;3.47;3.15;;;17.00;99.90;;;;;;4969746;28;20121;-32
2022/07/10 00:19:58;;;;;;;2.83;2.63;;;17.00;99.90;;;;;;4971067;28;20019;-32
2022/07/10 00:22:24;;;;;;;2.70;2.50;;;17.10;99.90;;;;;;4969442;28;20039;-32
2022/07/10 00:24:50;;;;;;;3.08;2.78;;;17.10;99.90;;;;;;4970731;28;20431;-32
2022/07/10 00:27:16;;;;;;;3.33;3.03;;;17.20;99.90;;;;;;4968871;28;20034;-32
2022/07/10 00:29:43;;;;;;;3.17;2.90;;;17.30;99.90;;;;;;4970584;28;20050;-32
2022/07/10 00:32:09;;;;;;;3.17;2.88;;;17.30;99.90;;;;;;4969523;28;20038;-32
2022/07/10 00:34:35;;;;;;;4.18;3.13;;;17.20;99.90;;;;;;4970066;28;20038;-32
2022/07/10 00:37:01;;;;;;;3.53;2.83;;;17.20;99.90;;;;;;4970277;28;20046;-32
2022/07/10 00:39:26;;;;;;;3.50;2.90;;;17.20;99.90;;;;;;4969753;28;20039;-32
2022/07/10 00:41:52;;;;;;;4.10;2.92;;;17.10;99.90;;;;;;4969659;28;20805;-32
2022/07/10 00:44:18;;;;;;;3.35;2.70;;;17.10;99.90;;;;;;4969933;28;20118;-32
2022/07/10 00:46:43;;;;;;;3.63;3.00;;;17.00;99.90;;;;;;4967034;28;20026;-32
2022/07/10 00:49:09;;;;;;;3.78;2.72;;;17.10;99.90;;;;;;4969983;28;20034;-32
2022/07/10 00:51:36;;;;;;;3.78;3.15;;;17.10;99.90;;;;;;4968391;28;20034;-33
2022/07/10 00:54:02;;;;;;;2.97;2.78;;;17.10;99.90;;;;;;4971534;28;20041;-32
2022/07/10 00:56:28;;;;;;;3.28;2.97;;;17.10;99.90;;;;;;4970922;28;20031;-32
2022/07/10 00:58:54;;;;;;;4.10;2.97;;;17.10;99.90;;;;;;4970056;28;20384;-32
2022/07/10 01:01:22;;;;;;;3.13;2.83;;;17.00;99.90;;;;;;4971850;28;20113;-31
2022/07/10 01:03:48;;;;;;;2.88;2.67;;;17.00;99.90;;;;;;4969578;28;20030;-32
2022/07/10 01:06:15;;;;;;;3.13;2.83;;;16.90;99.90;;;;;;4972549;28;20117;-33
2022/07/10 01:08:42;;;;;;;3.60;2.88;;;16.90;99.90;;;;;;4969518;28;20034;-32
2022/07/10 01:11:12;;;;;;;3.10;2.90;;;16.90;99.90;;;;;;4969853;28;20049;-33
2022/07/10 01:13:39;;;;;;;3.80;3.30;;;16.80;99.90;;;;;;4968982;28;20149;-32
2022/07/10 01:16:04;;;;;;;3.38;3.05;;;16.70;99.90;;;;;;4970224;28;20042;-32
2022/07/10 01:18:30;;;;;;;3.70;3.40;;;16.70;99.90;;;;;;4969513;28;20030;-32
2022/07/10 01:20:56;;;;;;;4.05;3.08;;;16.70;99.90;;;;;;4971484;28;20089;-33
2022/07/10 01:23:23;;;;;;;5.32;3.00;;;16.70;99.90;;;;;;4969531;28;20450;-33
2022/07/10 01:25:49;;;;;;;3.15;2.83;;;16.70;99.90;;;;;;4969902;28;20066;-32
2022/07/10 01:28:21;;;;;;;3.00;2.80;;;16.80;99.90;;;;;;4968957;28;20053;-32
2022/07/10 01:30:47;;;;;;;3.95;3.45;;;16.80;99.90;;;;;;4969185;28;20408;-32
2022/07/10 01:33:13;;;;;;;4.28;3.35;;;16.70;99.90;;;;;;4969478;28;20027;-32
2022/07/10 01:35:39;;;;;;;3.50;3.20;;;16.70;99.90;;;;;;4967615;28;20027;-32
2022/07/10 01:38:05;;;;;;;3.08;2.75;;;16.70;99.90;;;;;;4970901;28;20014;-32
2022/07/10 01:40:31;;;;;;;3.28;2.88;;;16.50;99.90;;;;;;4976297;28;20485;-33
2022/07/10 01:42:58;;;;;;;3.80;3.08;;;16.60;99.90;;;;;;4973213;28;20033;-32
2022/07/10 01:45:24;;;;;;;3.50;3.00;;;16.50;99.90;;;;;;4976915;28;20114;-32
2022/07/10 01:47:49;;;;;;;3.38;3.08;;;16.50;99.90;;;;;;4970827;28;20109;-33
2022/07/10 01:50:15;;;;;;;3.25;2.95;;;16.50;99.90;;;;;;4957598;28;20070;-33
2022/07/10 01:52:40;;;;;;;3.50;3.17;;;16.50;99.90;;;;;;4972803;28;20102;-32
2022/07/10 01:55:06;;;;;;;3.70;3.40;;;16.40;99.90;;;;;;4958407;28;20030;-32
2022/07/10 01:57:32;;;;;;;3.53;3.15;;;16.20;99.90;;;;;;4972491;28;20023;-32
2022/07/10 01:59:58;;;;;;;3.22;3.03;;;16.10;99.90;;;;;;4971066;28;20037;-32
2022/07/10 02:02:24;;;;;;;3.30;2.92;;;16.10;99.90;;;;;;4974049;28;20035;-32
2022/07/10 02:04:49;;;;;;;3.42;3.13;;;16.10;99.90;;;;;;4972835;28;20034;-32
2022/07/10 02:07:18;;;;;;;3.50;3.20;;;16.00;99.90;;;;;;4975386;28;20599;-32
2022/07/10 02:09:44;;;;;;;3.30;3.00;;;16.00;99.90;;;;;;4970540;28;20039;-32
2022/07/10 02:12:11;;;;;;;3.55;3.13;;;16.00;99.90;;;;;;4954689;28;20536;-32
2022/07/10 02:14:37;;;;;;;3.53;3.22;;;16.00;99.90;;;;;;4971962;28;21898;-32
2022/07/10 02:17:04;;;;;;;3.83;3.10;;;16.00;99.90;;;;;;4973688;28;20022;-32
2022/07/10 02:19:30;;;;;;;3.58;2.90;;;16.00;99.90;;;;;;4972059;28;20031;-32
2022/07/10 02:21:56;;;;;;;3.42;3.13;;;15.90;99.90;;;;;;4974108;28;20585;-32
2022/07/10 02:24:22;;;;;;;3.70;3.17;;;15.90;99.90;;;;;;4973435;28;20447;-32
2022/07/10 02:26:48;;;;;;;3.53;3.25;;;15.80;99.90;;;;;;4972834;28;20030;-32
2022/07/10 02:29:14;;;;;;;3.35;3.05;;;15.80;99.90;;;;;;4972553;28;20069;-32
2022/07/10 02:31:42;;;;;;;3.22;2.92;;;15.80;99.90;;;;;;4971295;28;20055;-32
2022/07/10 02:34:08;;;;;;;;;;;15.80;99.90;;;;;;4966778;28;20473;-32
2022/07/10 02:36:34;;;;;;;3.00;2.60;;;15.80;99.90;;;;;;4971131;28;19964;-33
2022/07/10 02:39:00;;;;;;;2.75;2.55;;;15.70;99.90;;;;;;4972065;28;20031;-33
2022/07/10 02:41:26;;;;;;;3.05;2.75;;;15.70;99.90;;;;;;4972675;28;20039;-32
2022/07/10 02:43:52;;;;;;;3.30;2.85;;;15.70;99.90;;;;;;4971106;28;20117;-32
2022/07/10 02:46:17;;;;;;;3.78;3.10;;;15.60;99.90;;;;;;4972292;28;20027;-32
2022/07/10 02:48:43;;;;;;;4.05;3.58;;;15.60;99.90;;;;;;4970962;28;20485;-32
2022/07/10 02:51:09;;;;;;;3.92;3.42;;;15.60;99.90;;;;;;4967037;28;20034;-32
2022/07/10 02:53:34;;;;;;;4.55;3.35;;;15.50;99.90;;;;;;4972309;28;20088;-32
2022/07/10 02:56:00;;;;;;;4.55;3.22;;;15.40;99.90;;;;;;4971416;28;20037;-32
2022/07/10 02:58:25;;;;;;;6.68;3.70;;;15.40;99.90;;;;;;4971634;28;20035;-32
2022/07/10 03:00:51;;;;;;;3.88;3.45;;;15.40;99.90;;;;;;4970541;28;20042;-32
2022/07/10 03:03:17;;;;;;;3.85;3.55;;;15.40;99.90;;;;;;4965221;28;20178;-32
2022/07/10 03:05:46;;;;;;;4.35;3.60;;;15.30;99.90;;;;;;4971333;28;20527;-32
2022/07/10 03:08:12;;;;;;;4.72;3.90;;;15.20;99.90;;;;;;4976660;28;20082;-32
2022/07/10 03:10:38;;;;;;;4.07;3.72;;;15.10;99.90;;;;;;4971490;28;20081;-32
2022/07/10 03:13:04;;;;;;;4.10;3.70;;;15.10;99.90;;;;;;4976195;28;20045;-32
2022/07/10 03:15:30;;;;;;;5.00;4.10;;;15.10;99.90;;;;;;4971722;28;20108;-33
2022/07/10 03:17:55;;;;;;;4.80;4.20;;;14.90;99.90;;;;;;4976868;28;20818;-33
2022/07/10 03:20:21;;;;;;;6.93;4.30;;;14.80;99.90;;;;;;4971280;28;20511;-32
2022/07/10 03:22:49;;;;;;;4.55;4.10;;;14.70;99.90;;;;;;4976557;28;20093;-32
2022/07/10 03:25:15;;;;;;;4.47;3.90;;;14.60;99.90;;;;;;4971444;28;20035;-32
2022/07/10 03:27:40;;;;;;;4.30;3.90;;;14.70;99.90;;;;;;4975707;28;20084;-32
2022/07/10 03:30:06;;;;;;;6.03;4.10;;;14.70;99.90;;;;;;4971608;28;20496;-32
2022/07/10 03:32:32;;;;;;;5.18;3.90;;;14.70;99.90;;;;;;4975146;28;20527;-32
2022/07/10 03:34:58;;;;;;;4.45;3.80;;;14.70;99.90;;;;;;4971008;28;20214;-31
2022/07/10 03:37:24;;;;;;;6.57;4.38;;;14.70;99.90;;;;;;4975154;28;20077;-32
2022/07/10 03:39:50;;;;;;;4.95;4.45;;;14.70;99.90;;;;;;4970887;28;20110;-32
2022/07/10 03:42:15;;;;;;;4.35;4.05;;;14.60;99.90;;;;;;4972570;28;20033;-32
2022/07/10 03:44:41;;;;;;;5.05;3.95;;;14.60;99.90;;;;;;4966369;28;20063;-32
2022/07/10 03:47:07;;;;;;;4.72;4.22;;;14.60;99.90;;;;;;4955520;28;20023;-32
2022/07/10 03:49:32;;;;;;;4.97;4.47;;;14.60;99.90;;;;;;4968277;28;20031;-32
2022/07/10 03:52:02;;;;;;;4.57;4.18;;;14.70;99.90;;;;;;4970918;28;20034;-32
2022/07/10 03:54:29;;;;;;;7.75;4.53;;;14.80;99.90;;;;;;4970727;28;20023;-32
2022/07/10 03:59:43;;;;;;;5.13;4.63;;;14.70;99.90;;;;;;4965428;28;20444;-32
2022/07/10 04:02:08;;;;;;;4.85;3.83;;;14.70;99.90;;;;;;4969462;28;20034;-32
2022/07/10 04:04:34;;;;;;;4.40;4.00;;;14.60;99.90;;;;;;4970379;28;20030;-32
2022/07/10 04:07:00;;;;;;;5.10;4.50;;;14.60;99.90;;;;;;4971015;28;20030;-32
2022/07/10 04:09:28;;;;;;;5.40;4.57;;;14.60;99.90;;;;;;4970444;28;20142;-31
2022/07/10 04:11:54;;;;;;;4.30;3.90;;;14.60;99.90;;;;;;4970620;28;20788;-32
2022/07/10 04:14:19;;;;;;;5.95;4.60;;;14.70;99.90;;;;;;4969905;28;20019;-32
2022/07/10 04:16:45;;;;;;;4.40;3.97;;;14.70;99.90;;;;;;4970136;28;20030;-32
2022/07/10 04:19:11;;;;;;;5.53;4.55;;;14.70;99.90;;;;;;4954034;28;20026;-32
2022/07/10 04:21:36;;;;;;;5.40;4.65;;;14.70;99.90;;;;;;4976174;28;20054;-31
2022/07/10 04:24:03;;;;;;;6.15;4.82;;;14.80;99.90;;;;;;4970441;28;20034;-32
2022/07/10 04:26:28;;;;;;;6.30;4.60;;;14.90;99.90;;;;;;4956638;28;20035;-32
2022/07/10 04:28:54;;;;;;;6.03;4.75;;;15.00;99.90;;;;;;4970492;28;20034;-32
2022/07/10 04:31:19;;;;;;;6.30;5.32;;;15.00;99.90;;;;;;4968854;28;20093;-32
2022/07/10 04:33:45;;;;;;;5.22;4.72;;;15.00;99.90;;;;;;4974888;28;20534;-32
2022/07/10 04:36:10;;;;;;;5.60;5.10;;;15.00;99.90;;;;;;4969979;28;20026;-31
2022/07/10 04:38:36;;;;;;;6.70;4.80;;;15.10;99.90;;;;;;4974131;28;20086;-32
2022/07/10 04:41:02;;;;;;;6.40;5.13;;;15.10;99.90;;;;;;4970190;28;20027;-32
2022/07/10 04:43:29;;;;;;;7.47;4.72;;;15.20;99.90;;;;;;4973979;28;20399;-33
2022/07/10 04:45:55;;;;;;;6.57;5.97;;;15.20;99.90;;;;;;4952709;28;20041;-32
2022/07/10 04:48:21;;;;;;;5.85;5.28;;;15.20;99.90;;;;;;4973968;28;20050;-32
2022/07/10 04:50:46;;;;;;;6.18;5.50;;;15.10;99.90;;;;;;4967590;28;20062;-32
2022/07/10 04:53:12;;;;;;;5.55;4.90;;;15.10;99.90;;;;;;4974134;28;20384;-32
2022/07/10 04:55:38;;;;;;;5.85;5.22;;;15.10;99.90;;;;;;4969615;28;20050;-32
2022/07/10 04:58:03;;;;;;;6.57;5.47;;;15.10;99.90;;;;;;4971965;28;20030;-31
2022/07/10 05:00:29;;;;;;;8.10;5.15;;;15.20;99.90;;;;;;4970182;28;20089;-33
2022/07/10 05:02:54;;;;;;;7.93;5.95;;;15.20;99.90;;;;;;4968261;28;20031;-32
2022/07/10 05:05:20;;;;;;;6.35;5.55;;;15.10;99.90;;;;;;4972235;28;20027;-32
2022/07/10 05:07:46;;;;;;;7.30;5.53;;;15.10;99.90;;;;;;4969456;28;20043;-32
2022/07/10 05:10:11;;;;;;;8.45;5.80;;;15.20;99.90;;;;;;4955058;28;20396;-32
2022/07/10 05:12:37;;;;;;;7.30;5.90;;;15.20;99.90;;;;;;4970224;28;20039;-32
2022/07/10 05:15:03;;;;;;;8.52;6.78;;;15.10;99.90;;;;;;4976088;28;20046;-33
2022/07/10 05:17:28;;;;;;;7.30;5.78;;;15.00;99.90;;;;;;4973243;28;20042;-32
2022/07/10 05:19:56;;;;;;;6.65;5.95;;;15.00;99.90;;;;;;4975556;28;20037;-32
2022/07/10 05:22:22;;;;;;;7.17;6.47;;;15.00;99.90;;;;;;4976583;28;20030;-31
2022/07/10 05:24:48;;;;;;;7.35;6.18;;;15.10;99.90;;;;;;4974269;28;20281;-32
2022/07/10 05:27:16;;;;;;;7.18;5.95;;;15.10;99.90;;;;;;4973822;28;20035;-32
2022/07/10 05:29:42;;;;;;;8.85;5.28;;;15.20;99.90;;;;;;4972820;28;20037;-32
2022/07/10 05:32:08;;;;;;;8.13;5.80;;;15.20;99.90;;;;;;4972972;28;20493;-32
2022/07/10 05:34:33;;;;;;;6.53;5.53;;;15.30;99.90;;;;;;4973201;28;20030;-32
2022/07/10 05:36:59;;;;;;;7.28;5.57;;;15.30;99.90;;;;;;4973263;28;20091;-32
2022/07/10 05:39:26;;;;;;;5.75;5.15;;;15.30;99.90;;;;;;4974208;28;20109;-32
2022/07/10 05:41:52;;;;;;;6.72;5.40;;;15.30;99.90;;;;;;4972755;28;20031;-32
2022/07/10 05:44:19;;;;;;;6.20;5.13;;;15.30;99.90;;;;;;4970565;28;20470;-32
2022/07/10 05:46:45;;;;;;;5.72;4.43;;;15.40;99.90;;;;;;4973057;28;20117;-32
2022/07/10 05:49:11;;;;;;;5.50;4.28;;;15.40;99.90;;;;;;4973226;28;20030;-32
2022/07/10 05:51:36;;;;;;;5.22;4.60;;;15.30;99.90;;;;;;4969603;28;20748;-31
2022/07/10 05:54:03;;;;;;;6.00;4.70;;;15.40;99.90;;;;;;4975480;28;20041;-31
2022/07/10 05:56:29;;;;;;;6.53;4.57;;;15.40;99.90;;;;;;4959119;28;20034;-32
2022/07/10 05:58:58;;;;;;;5.57;4.47;;;15.30;99.90;;;;;;4973394;28;21647;-32
2022/07/10 06:01:24;;;;;;;6.00;4.32;;;15.30;99.90;;;;;;4976899;28;20093;-32
2022/07/10 06:03:49;;;;;;;4.60;4.15;;;15.40;99.90;;;;;;4970503;28;20122;-32
2022/07/10 06:06:15;;;;;;;5.32;4.22;;;15.60;99.90;;;;;;4977660;28;20125;-31
2022/07/10 06:08:42;;;;;;;5.30;3.60;;;15.70;99.90;;;;;;4972627;28;20070;-32
2022/07/10 06:11:08;;;;;;;4.80;3.85;;;15.80;99.90;;;;;;4974923;28;20041;-32
2022/07/10 06:13:34;;;;;;;5.13;4.05;;;15.80;99.90;;;;;;4972271;28;20030;-32
2022/07/10 06:15:59;;;;;;;4.70;3.35;;;15.70;99.90;;;;;;4976976;28;20105;-32
2022/07/10 06:18:25;;;;;;;6.20;4.10;;;15.60;99.90;;;;;;4975963;28;20038;-32
2022/07/10 06:20:50;;;;;;;5.68;3.67;;;15.60;99.90;;;;;;4975382;28;20066;-33
2022/07/10 06:23:16;;;;;;;4.20;3.17;;;15.70;99.90;;;;;;4955194;28;20488;-32
2022/07/10 06:25:42;;;;;;;3.03;2.80;;;15.90;99.90;;;;;;4973280;28;20403;-33
2022/07/10 06:28:07;;;;;;;3.42;3.13;;;16.20;99.90;;;;;;4971650;28;20042;-33
2022/07/10 06:30:33;;;;;;;4.20;2.92;;;16.50;99.90;;;;;;4975341;28;20183;-34
2022/07/10 06:32:58;;;;;;;4.05;3.20;;;16.60;99.90;;;;;;4972259;28;20039;-32
2022/07/10 06:35:24;;;;;;;3.75;2.95;;;16.50;99.90;;;;;;4975202;28;20061;-32
2022/07/10 06:37:51;;;;;;;4.57;3.30;;;16.20;99.90;;;;;;4972295;28;20059;-33
2022/07/10 06:40:19;;;;;;;4.13;3.05;;;16.10;99.90;;;;;;4974549;28;20045;-33
2022/07/10 06:42:45;;;;;;;6.00;3.10;;;15.90;99.90;;;;;;4972161;28;20069;-32
2022/07/10 06:45:11;;;;;;;4.38;2.78;;;15.90;99.90;;;;;;4973930;28;20063;-39
2022/07/10 06:47:55;;;;;;;6.75;2.90;;;15.90;99.90;;;;;;4972498;28;20061;-39
2022/07/10 06:50:21;;;;;;;3.30;3.00;;;16.00;99.90;;;;;;4971032;28;20055;-39
2022/07/10 06:52:48;;;;;;;5.15;3.03;;;16.00;99.90;;;;;;4972338;28;20046;-37
2022/07/10 06:55:14;;;;;;;3.38;2.85;;;15.90;99.90;;;;;;4972646;28;20110;-39
2022/07/10 06:57:40;;;;;;;6.30;3.22;;;16.00;99.90;;;;;;4972235;28;20054;-39
2022/07/10 07:00:07;;;;;;;3.50;2.70;;;16.10;99.90;;;;;;4972723;28;20507;-37
2022/07/10 07:02:32;;;;;;;3.95;2.80;;;16.20;99.90;;;;;;4971231;28;20038;-39
2022/07/10 07:04:58;;;;;;;6.82;3.50;;;16.30;99.90;;;;;;4971877;28;20030;-39
2022/07/10 07:07:24;;;;;;;3.10;2.80;;;16.40;99.90;;;;;;4971662;28;20109;-38
2022/07/10 07:09:50;;;;;;;4.20;3.17;;;16.30;99.90;;;;;;4971967;28;20034;-36
2022/07/10 07:12:17;;;;;;;5.10;2.97;;;16.40;99.90;;;;;;4971012;28;20115;-39
2022/07/10 07:14:43;;;;;;;3.13;2.80;;;16.30;99.90;;;;;;4971742;28;20551;-36
2022/07/10 07:17:11;;;;;;;3.65;2.70;;;16.30;99.90;;;;;;4973174;28;20023;-36
2022/07/10 07:25:08;;;;;;;4.35;2.95;;;16.30;99.90;;;;;;4974214;28;20142;-37
2022/07/10 07:27:35;;;;;;;4.03;2.63;;;16.30;99.90;;;;;;4973798;28;20145;-39
2022/07/10 07:30:10;;;;;;;4.05;2.95;;;16.40;99.90;;;;;;4969676;28;20600;-39
2022/07/10 07:32:37;;;;;;;3.75;3.25;;;16.30;99.90;;;;;;4971578;28;20122;-37
2022/07/10 07:35:04;;;;;;;3.60;3.05;;;16.20;99.90;;;;;;4971259;28;20023;-38
2022/07/10 07:37:44;;;;;;;5.68;3.00;;;16.20;99.90;;;;;;4974385;28;20022;-36
2022/07/10 07:40:15;;;;;;;5.82;2.75;;;16.40;99.90;;;;;;4952419;28;20489;-39
2022/07/10 07:42:41;;;;;;;3.13;2.70;;;16.50;99.90;;;;;;4970208;28;20110;-39
2022/07/10 07:45:08;;;;;;;3.63;3.30;;;16.40;99.90;;;;;;4970779;28;20034;-38
2022/07/10 07:48:03;;;;;;;4.13;2.85;;;16.40;99.90;;;;;;4974345;28;20153;-38
2022/07/10 07:50:34;;;;;;;4.00;3.10;;;16.40;99.90;;;;;;4946540;28;20436;-39
2022/07/10 07:53:01;;;;;;;2.97;2.67;;;16.40;99.90;;;;;;4974122;28;20118;-39
2022/07/10 07:55:27;;;;;;;6.95;2.90;;;16.40;99.90;;;;;;4970474;28;20435;-39
2022/07/10 07:57:55;;;;;;;3.05;2.75;;;16.40;99.90;;;;;;4973808;28;20091;-40
2022/07/10 08:00:23;;;;;;;3.63;2.60;;;16.60;99.90;;;;;;4970663;28;20053;-37
2022/07/10 08:02:50;;;;;;;3.70;2.85;;;16.50;99.90;;;;;;4972906;28;20042;-39
2022/07/10 08:05:16;;;;;;;2.50;2.30;;;16.50;99.90;;;;;;4970521;28;20034;-37
2022/07/10 08:07:44;;;;;;;3.17;2.10;;;16.70;99.90;;;;;;4971855;28;20049;-38
2022/07/10 08:10:15;;;;;;;6.38;2.30;;;17.00;99.90;;;;;;4971995;28;20403;-37
2022/07/10 08:12:42;;;;;;;2.92;2.60;;;17.50;99.90;;;;;;4970445;28;20027;-40
2022/07/10 08:15:10;;;;;;;7.60;2.97;;;17.80;99.90;;;;;;4970940;28;20141;-39
2022/07/10 08:17:37;;;;;;;3.38;2.35;;;17.60;99.90;;;;;;4971086;28;20039;-38
2022/07/10 08:20:04;;;;;;;4.00;2.10;;;17.40;99.90;;;;;;4970359;28;20508;-37
2022/07/10 08:22:29;;;;;;;3.22;2.25;;;17.10;99.90;;;;;;4970508;28;20113;-40
2022/07/10 08:24:56;;;;;;;3.90;2.05;;;17.00;99.90;;;;;;4970132;28;20113;-37
2022/07/10 08:27:22;;;;;;;2.75;2.15;;;17.10;99.90;;;;;;4969738;28;20035;-39
2022/07/10 08:29:48;;;;;;;2.92;2.30;;;17.60;98.30;;;;;;4970573;28;20042;-40
2022/07/10 08:32:13;;;;;;;2.40;2.15;;;17.90;95.60;;;;;;4971875;28;20114;-39
2022/07/10 08:34:39;;;;;;;3.80;2.53;;;18.10;96.90;;;;;;4970262;28;20161;-36
2022/07/10 08:37:05;;;;;;;2.53;2.33;;;18.60;96.20;;;;;;4972417;28;20526;-40
2022/07/10 08:39:31;;;;;;;3.83;2.15;;;18.10;96.30;;;;;;4970553;28;20027;-38
2022/07/10 08:41:57;;;;;;;4.35;2.22;;;17.60;97.60;;;;;;4972509;28;20560;-39
2022/07/10 08:44:23;;;;;;;3.70;2.10;;;17.50;98.60;;;;;;4968527;28;20061;-36
2022/07/10 08:46:49;;;;;;;3.50;2.67;;;18.10;99.60;;;;;;4971962;28;20035;-40
2022/07/10 08:49:17;;;;;;;2.05;1.90;;;18.20;96.30;;;;;;4971007;28;20034;-39
2022/07/10 08:52:05;;;;;;;2.75;2.10;;;18.00;95.10;;;;;;4970497;28;20124;-38
2022/07/10 08:54:33;;;;;;;3.47;2.40;;;18.00;94.10;;;;;;4968777;28;20019;-36
2022/07/10 08:57:00;;;;;;;2.88;2.30;;;18.00;99.10;;;;;;4971057;28;20027;-39
2022/07/10 08:59:28;;;;;;;2.05;1.90;;;18.40;95.90;;;;;;4969925;28;20035;-39
2022/07/10 09:01:54;;;;;;;3.57;2.53;;;18.70;90.80;;;;;;4969781;28;20031;-39
2022/07/10 09:04:25;;;;;;;3.13;1.80;;;18.60;90.50;;;;;;4971275;28;20378;-38
2022/07/10 09:06:52;;;;;;;4.65;1.88;;;18.80;89.20;;;;;;4970239;28;20061;-39
2022/07/10 09:09:18;;;;;;;2.80;2.10;;;18.80;87.60;;;;;;4971754;28;20197;-37
2022/07/10 09:11:44;;;;;;;3.00;1.88;;;18.60;90.10;;;;;;4969720;28;20500;-36
2022/07/10 09:14:15;;;;;;;2.60;2.00;;;18.30;90.30;;;;;;4971781;28;20037;-38
2022/07/10 09:16:44;;;;;;;2.15;1.90;;;18.00;96.60;;;;;;4969512;28;20125;-37
2022/07/10 09:19:24;;;;;;;2.35;1.60;;;18.30;96.80;;;;;;4971914;28;20030;-37
2022/07/10 09:22:07;;;;;;;1.73;1.60;;;19.00;92.00;;;;;;4952937;28;20026;-38
2022/07/10 09:24:41;;;;;;;2.45;1.70;;;19.50;81.50;;;;;;4969523;28;20031;-39
2022/07/10 09:27:08;;;;;;;3.08;1.85;;;19.10;90.20;;;;;;4969351;28;20043;-36
2022/07/10 09:29:47;;;;;;;2.92;2.25;;;19.50;76.60;;;;;;4972711;28;20401;-39
2022/07/10 09:32:12;;;;;;;3.03;1.70;;;19.10;81.10;;;;;;4969159;28;20093;-40
2022/07/10 09:34:39;;;;;;;2.97;2.00;;;19.40;82.30;;;;;;4970854;28;20492;-40
2022/07/10 09:37:25;;;;;;;1.88;1.73;;;19.20;85.80;;;;;;4969436;28;20030;-40
2022/07/10 09:39:58;;;;;;;1.75;1.52;;;19.90;75.70;;;;;;4971652;28;20026;-39
2022/07/10 09:42:42;;;;;;;4.00;1.80;;;19.40;74.60;;;;;;4965607;28;20035;-40
2022/07/10 09:45:17;;;;;;;2.28;1.55;;;18.90;83.40;;;;;;4968482;28;20528;-40
2022/07/10 09:47:44;;;;;;;2.70;1.40;;;19.40;81.80;;;;;;4970518;28;20038;-40
2022/07/10 09:50:21;;;;;;;4.50;1.95;;;19.90;79.40;;;;;;4971105;28;20038;-38
2022/07/10 09:52:48;;;;;;;2.03;1.80;;;20.20;74.10;;;;;;4969999;28;20157;-39
2022/07/10 09:55:15;;;;;;;5.07;1.80;;;20.00;63.60;;;;;;4971347;28;20018;-39
2022/07/10 09:57:45;;;;;;;2.33;1.70;;;20.20;67.90;;;;;;4969320;28;20026;-35
2022/07/10 10:00:11;;;;;;;1.73;1.40;;;20.20;72.40;;;;;;4958352;28;20129;-36
2022/07/10 10:02:39;;;;;;;1.83;1.45;;;19.70;73.30;;;;;;4972423;28;20669;-39
2022/07/10 10:05:05;;;;;;;1.95;1.58;;;19.30;69.40;;;;;;4975902;28;20104;-38
2022/07/10 10:07:33;;;;;;;1.70;1.60;;;19.40;74.60;;;;;;4973299;28;20046;-39
2022/07/10 10:10:01;;;;;;;2.90;1.10;;;20.00;68.80;;;;;;4978020;28;20029;-40
2022/07/10 10:12:45;;;;;;;2.55;1.75;;;20.10;65.10;;;;;;4972030;28;20038;-39
2022/07/10 10:15:11;;;;;;;1.83;1.60;;;20.20;66.60;;;;;;4975961;28;20421;-39
2022/07/10 10:17:40;;;;;;;2.08;1.40;;;20.20;68.70;;;;;;4973141;28;20400;-40
2022/07/10 10:22:55;;;;;;;2.85;1.52;;;19.60;76.20;;;;;;4972968;28;20459;-39
2022/07/10 10:25:23;;;;;;;2.42;1.52;;;19.40;76.60;;;;;;4975837;28;20030;-36
2022/07/10 10:27:49;;;;;;;1.40;1.30;;;19.30;73.70;;;;;;4972731;28;20026;-37
2022/07/10 10:30:15;;;;;;;1.90;1.55;;;19.30;77.70;;;;;;4974985;28;20034;-39
2022/07/10 10:32:41;;;;;;;2.33;1.45;;;19.40;79.50;;;;;;4973001;28;20114;-40
2022/07/10 10:35:09;;;;;;;1.48;1.38;;;19.60;69.40;;;;;;4975437;28;20178;-40
2022/07/10 10:37:40;;;;;;;2.65;1.27;;;19.60;67.80;;;;;;4972794;28;20125;-39
2022/07/10 10:40:11;;;;;;;2.03;1.33;;;19.30;67.50;;;;;;4975225;28;20038;-38
2022/07/10 10:42:42;;;;;;;2.17;1.35;;;19.30;70.60;;;;;;4972075;28;20030;-40
2022/07/10 10:45:31;;;;;;;1.63;1.50;;;19.50;74.50;;;;;;4975596;28;20117;-36
2022/07/10 10:48:08;;;;;;;2.92;1.60;;;19.80;65.00;;;;;;4969471;28;20038;-37
2022/07/10 10:50:56;;;;;;;1.25;1.23;;;19.60;63.40;;;;;;4973941;28;20109;-37
2022/07/10 10:53:26;;;;;;;2.45;1.60;;;19.80;64.10;;;;;;4972188;28;20023;-37
2022/07/10 10:56:04;;;;;;;1.65;1.40;;;20.20;65.10;;;;;;4974312;28;20109;-40
2022/07/10 10:58:42;;;;;;;1.40;1.30;;;20.20;65.10;;;;;;4971926;28;20037;-37
2022/07/10 11:01:20;;;;;;;3.38;1.60;;;20.20;62.50;;;;;;4974049;28;20115;-39
2022/07/10 11:04:05;;;;;;;1.60;1.50;;;19.90;60.90;;;;;;4953126;28;20099;-40
2022/07/10 11:06:41;;;;;;;1.92;1.42;;;19.60;61.90;;;;;;4971454;28;20031;-39
2022/07/10 11:09:30;;;;;;;1.95;1.20;;;19.60;65.90;;;;;;4971962;28;20038;-39
2022/07/10 11:12:09;;;;;;;2.25;1.02;;;19.90;66.80;;;;;;4969395;28;20033;-39
2022/07/10 11:14:39;;;;;;;4.28;1.45;;;19.10;58.50;;;;;;4971389;28;22371;-40
2022/07/10 11:17:06;;;;;;;1.50;1.40;;;19.30;65.20;;;;;;4972174;28;20034;-39
2022/07/10 11:19:33;;;;;;;2.83;1.40;;;19.40;62.00;;;;;;4973938;28;20023;-40
2022/07/10 11:22:32;;;;;;;3.22;1.27;;;19.50;63.30;;;;;;4971623;28;20072;-39
2022/07/10 11:25:24;;;;;;;1.55;1.17;;;19.40;61.90;;;;;;4969081;28;20031;-38
2022/07/10 11:28:09;;;;;;;2.63;1.30;;;19.30;62.60;;;;;;4967297;28;20073;-39
2022/07/10 11:30:52;;;;;;;2.63;1.20;;;19.30;61.90;;;;;;4969379;28;20154;-40
2022/07/10 11:33:20;;;;;;;1.67;1.30;;;19.20;59.70;;;;;;4953323;28;20066;-38
2022/07/10 11:35:47;;;;;;;1.48;1.38;;;19.40;65.70;;;;;;4971146;28;20468;-37
2022/07/10 11:38:22;;;;;;;1.37;1.27;;;19.50;62.50;;;;;;4971160;28;20030;-40
2022/07/10 11:40:48;;;;;;;1.50;1.40;;;19.20;59.40;;;;;;4969074;28;20035;-38
2022/07/10 11:43:16;;;;;;;1.60;1.50;;;19.20;61.60;;;;;;4971057;28;20050;-39
2022/07/10 11:45:43;;;;;;;2.10;1.50;;;19.20;59.40;;;;;;4974796;28;20662;-37
2022/07/10 11:48:17;;;;;;;5.15;1.23;;;19.20;60.10;;;;;;4966864;28;20023;-40
2022/07/10 11:50:44;;;;;;;5.40;1.50;;;19.00;60.60;;;;;;4970315;28;20445;-39
2022/07/10 11:53:09;;;;;;;1.48;1.23;;;19.10;60.90;;;;;;4971224;28;20400;-39
2022/07/10 11:55:40;;;;;;;2.55;1.30;;;19.00;58.90;;;;;;4974062;28;20030;-37
2022/07/10 11:58:18;;;;;;;4.28;1.45;;;18.90;60.30;;;;;;4965670;28;20014;-40
2022/07/10 12:01:05;;;;;;;1.65;1.30;;;18.80;60.10;;;;;;4973333;28;20081;-38
2022/07/10 12:03:31;;;;;;;2.08;1.30;;;18.80;61.60;;;;;;4970985;28;20433;-36
2022/07/10 12:06:05;;;;;;;1.70;1.40;;;18.90;61.70;;;;;;4956440;28;20126;-38
2022/07/10 12:08:42;;;;;;;1.20;1.08;;;19.00;63.60;;;;;;4971182;28;20037;-40
2022/07/10 12:11:15;;;;;;;2.25;1.60;;;19.00;62.40;;;;;;4971701;28;20030;-36
2022/07/10 12:13:45;;;;;;;3.20;1.42;;;19.10;59.00;;;;;;4969112;28;20038;-38
2022/07/10 12:16:12;;;;;;;2.05;1.30;;;19.30;61.60;;;;;;4971967;28;20516;-40
2022/07/10 12:18:38;;;;;;;1.65;1.55;;;19.20;56.40;;;;;;4953166;28;20100;-37
2022/07/10 12:21:04;;;;;;;1.30;1.20;;;19.00;57.90;;;;;;4970427;28;20377;-39
2022/07/10 12:23:30;;;;;;;1.88;1.30;;;19.00;59.90;;;;;;4970871;28;20031;-36
2022/07/10 12:25:56;;;;;;;2.38;1.40;;;19.10;59.40;;;;;;4972979;28;20527;-39
2022/07/10 12:28:22;;;;;;;1.88;1.30;;;19.20;58.50;;;;;;4970238;28;20031;-36
2022/07/10 12:30:49;;;;;;;1.55;1.45;;;19.00;58.10;;;;;;4972226;28;20395;-36
2022/07/10 12:33:19;;;;;;;1.20;1.20;;;19.00;60.90;;;;;;4970402;28;20042;-36
2022/07/10 12:35:57;;;;;;;2.45;1.40;;;19.00;60.30;;;;;;4971842;28;20033;-40
2022/07/10 12:38:24;;;;;;;1.40;1.30;;;19.20;62.50;;;;;;4969069;28;20037;-40
2022/07/10 12:41:05;;;;;;;1.70;1.30;;;19.20;61.20;;;;;;4954549;28;20050;-37
2022/07/10 12:43:31;;;;;;;1.25;1.15;;;19.00;57.40;;;;;;4969946;28;20582;-37
2022/07/10 12:46:19;;;;;;;1.98;1.40;;;19.00;56.60;;;;;;4971649;28;20054;-39
2022/07/10 12:49:04;;;;;;;;;;;19.20;57.50;;;;;;4953818;28;20022;-39
2022/07/10 12:51:42;;;;;;;1.48;1.02;;;19.30;60.10;;;;;;4969648;28;19914;-39
2022/07/10 12:54:08;;;;;;;1.90;1.40;;;19.50;59.50;;;;;;4970355;28;20081;-40
2022/07/10 12:56:37;;;;;;;1.77;1.33;;;19.60;57.00;;;;;;4970784;28;20051;-36
2022/07/10 12:59:14;;;;;;;1.20;1.10;;;19.60;57.10;;;;;;4970050;28;20027;-36
2022/07/10 13:01:44;;;;;;;2.80;1.38;;;19.60;55.90;;;;;;4965167;28;20512;-39
2022/07/10 13:04:10;;;;;;;1.42;1.27;;;19.40;57.00;;;;;;4969855;28;20030;-40